Andover, OH

1:34 PM EDT on September 30, 2016 (GMT -0400)
Maple Grove (Sunset Knolls) | | Change Station

Elev 1033 ft 41.59 °N, 80.50 °W | Updated 58 seconds ago

Overcast
Overcast
62.5 °F
Feels Like 62.5 °F
N
4.0
Wind Variable Wind from SSE

Today
High -- | Low -- °F
--% Chance of Precip.
Yesterday
High -- | Low -- °F
Precip. -- in
Pressure 30.17 in
Visibility 10.0 miles
Clouds Mostly Cloudy 1100 ft
Overcast 1800 ft
Dew Point 57 °F
Humidity 83%
Rainfall 1.01 in
Snow Depth Not available.
7:18 AM 7:04 PM
Waning Crescent, 0% visible
SPECI KHZY 301713Z AUTO 11009KT 10SM -RA BKN011 OVC018 16/15 A3017 RMK AO2 P0001 T01560150
Pressure 30.17 in
Visibility 10.0 miles
Clouds Mostly Cloudy 1100 ft
Overcast 1800 ft
Dew Point 57 °F
Humidity 83%
Rainfall 1.01 in
Snow Depth Not available.
7:18 AM 7:04 PM
Waning Crescent, 0% visible
SPECI KHZY 301713Z AUTO 11009KT 10SM -RA BKN011 OVC018 16/15 A3017 RMK AO2 P0001 T01560150

10-Day Weather Forecast

Almanac

Astronomy

Sep. 30, 2016 Rise Set
Actual Time
Civil Twilight
Nautical Twilight
Astronomical Twilight
Moon
Length of Visible Light
Length of Day
Tomorrow will be .
, % of the Moon is Illuminated

Today's Extremes

State Highs State Lows

Community

WunderPhotos

Upload Photos

1,942,756 photos uploaded!

WunderBlog® & News

Nearby

Air Quality

  Air Quality AQ Index Pollutant
Not available.

Snow Depth

Station Depth Elevation

Earthquake Activity

City Distance Mag. Time & Date
Minimum magnitude displayed is 2.5.

Coastal Water Temperatures

Place Temperature

Stations

Nearby Weather Stations

Station Location Temp. Windchill Dew Point Humidity Wind Precip. Elev Updated Type
                   

Watches & Warnings

There are currently no watches in effect.